createdAt,value
2018-10-18T00:01:45.572Z,71.14
2018-10-18T00:04:14.511Z,71.09
2018-10-18T00:06:43.471Z,71.64
2018-10-18T00:09:12.896Z,71.51
2018-10-18T00:11:41.917Z,71.62
2018-10-18T00:14:10.906Z,71.78
2018-10-18T00:16:39.812Z,71.65
2018-10-18T00:19:08.843Z,71.57
2018-10-18T00:21:37.775Z,71.95
2018-10-18T00:24:06.869Z,72.13
2018-10-18T00:26:35.720Z,72.62
2018-10-18T00:29:04.688Z,72.50
2018-10-18T00:31:33.647Z,72.30
2018-10-18T00:34:02.621Z,72.41
2018-10-18T00:36:31.568Z,72.77
2018-10-18T00:39:00.539Z,72.81
2018-10-18T00:41:29.479Z,72.95
2018-10-18T00:43:58.525Z,73.18
2018-10-18T00:46:27.561Z,73.01
2018-10-18T00:48:56.499Z,73.30
2018-10-18T00:51:25.435Z,73.37
2018-10-18T00:53:54.408Z,73.31
2018-10-18T00:56:23.345Z,73.52
2018-10-18T00:58:52.369Z,73.61
2018-10-18T01:01:21.434Z,73.50
2018-10-18T01:03:50.375Z,73.69
2018-10-18T01:06:19.480Z,73.80
2018-10-18T01:08:48.650Z,73.92
2018-10-18T01:11:17.612Z,73.72
2018-10-18T01:13:46.608Z,73.08
2018-10-18T01:16:15.736Z,72.64
2018-10-18T01:18:44.718Z,73.72
2018-10-18T01:21:13.711Z,73.99
2018-10-18T01:23:42.653Z,74.03
2018-10-18T01:26:11.707Z,73.88
2018-10-18T01:28:40.540Z,74.10
2018-10-18T01:31:09.522Z,73.09
2018-10-18T01:33:38.437Z,74.27
2018-10-18T01:36:07.448Z,74.45
2018-10-18T01:38:36.365Z,74.34
2018-10-18T01:41:05.358Z,74.45
2018-10-18T01:43:34.311Z,74.48
2018-10-18T01:46:03.677Z,74.78
2018-10-18T01:48:32.648Z,74.69
2018-10-18T01:51:01.634Z,74.84
2018-10-18T01:53:30.846Z,73.35
2018-10-18T01:55:59.812Z,74.38
2018-10-18T01:58:28.744Z,74.64
2018-10-18T02:00:57.687Z,74.61
2018-10-18T02:03:26.641Z,74.75
2018-10-18T02:05:55.645Z,74.60
2018-10-18T02:08:24.539Z,74.43
2018-10-18T02:10:53.508Z,74.34
2018-10-18T02:13:22.422Z,74.50
2018-10-18T02:15:51.394Z,74.79
2018-10-18T02:18:20.415Z,74.61
2018-10-18T02:20:49.323Z,74.48
2018-10-18T02:23:18.212Z,74.35
2018-10-18T02:25:47.182Z,74.25
2018-10-18T02:28:16.143Z,74.12
2018-10-18T02:30:45.093Z,74.32
2018-10-18T02:33:14.077Z,74.34
2018-10-18T02:35:43.018Z,74.90
2018-10-18T02:38:12.074Z,74.60
2018-10-18T02:40:40.978Z,74.64
2018-10-18T02:43:09.921Z,74.93
2018-10-18T02:45:38.863Z,75.13
2018-10-18T02:48:07.854Z,75.29
2018-10-18T02:50:36.759Z,75.22
2018-10-18T02:53:05.762Z,75.19
2018-10-18T02:55:34.693Z,74.90
2018-10-18T02:58:03.803Z,73.37
2018-10-18T03:00:32.725Z,74.40
2018-10-18T03:03:01.671Z,74.07
2018-10-18T03:05:30.572Z,74.11
2018-10-18T03:07:59.511Z,73.94
2018-10-18T03:10:28.456Z,74.27
2018-10-18T03:12:57.367Z,74.04
2018-10-18T03:15:26.314Z,73.95
2018-10-18T03:17:55.332Z,74.02
2018-10-18T03:20:24.219Z,73.96
2018-10-18T03:22:53.129Z,74.42
2018-10-18T03:25:22.061Z,74.70
2018-10-18T03:27:51.000Z,75.07
2018-10-18T03:30:20.026Z,74.81
2018-10-18T03:32:48.878Z,74.67
2018-10-18T03:35:17.829Z,73.05
2018-10-18T03:37:46.788Z,74.02
2018-10-18T03:40:15.727Z,72.42
2018-10-18T03:42:44.647Z,73.22
2018-10-18T03:45:13.593Z,73.36
2018-10-18T03:47:42.553Z,73.75
2018-10-18T03:50:11.469Z,73.79
2018-10-18T03:52:40.411Z,73.90
2018-10-18T03:55:09.403Z,74.15
2018-10-18T03:57:38.313Z,74.27
2018-10-18T04:00:07.950Z,74.68
2018-10-18T04:02:36.888Z,74.78
2018-10-18T04:05:06.739Z,75.01
2018-10-18T04:07:35.653Z,75.04
2018-10-18T04:10:04.642Z,75.29
2018-10-18T04:12:33.720Z,75.33
2018-10-18T04:15:02.610Z,75.51
2018-10-18T04:17:31.652Z,75.37
2018-10-18T04:20:00.608Z,75.45
2018-10-18T04:22:29.634Z,75.39
2018-10-18T04:24:58.542Z,75.63
2018-10-18T04:27:27.493Z,75.17
2018-10-18T04:29:56.466Z,75.18
2018-10-18T04:32:25.393Z,75.27
2018-10-18T04:34:54.344Z,75.37
2018-10-18T04:37:23.317Z,75.43
2018-10-18T04:39:52.268Z,75.21
2018-10-18T04:42:21.266Z,75.21
2018-10-18T04:44:50.277Z,75.53
2018-10-18T04:47:19.478Z,75.02
2018-10-18T04:49:48.240Z,76.12
2018-10-18T04:52:17.236Z,76.30
2018-10-18T04:54:46.229Z,76.07
2018-10-18T04:57:15.196Z,75.64
2018-10-18T04:59:44.136Z,76.43
2018-10-18T05:02:13.104Z,76.52
2018-10-18T05:05:19.245Z,76.59
2018-10-18T05:07:48.303Z,76.78
2018-10-18T05:10:17.277Z,77.15
2018-10-18T05:12:46.405Z,77.26
2018-10-18T05:15:15.232Z,76.98
2018-10-18T05:17:44.202Z,77.40
2018-10-18T05:20:13.220Z,77.32
2018-10-18T05:22:42.233Z,77.90
2018-10-18T05:25:11.341Z,77.79
2018-10-18T05:27:40.189Z,77.98
2018-10-18T05:30:09.527Z,77.67
2018-10-18T05:32:38.470Z,77.56
2018-10-18T05:35:07.465Z,77.39
2018-10-18T05:37:36.428Z,77.49
2018-10-18T05:40:05.388Z,77.39
2018-10-18T05:42:34.344Z,77.48
2018-10-18T05:45:03.267Z,77.84
2018-10-18T05:47:32.197Z,78.29
2018-10-18T05:50:01.161Z,77.61
2018-10-18T05:52:30.135Z,78.46
2018-10-18T05:54:59.163Z,78.25
2018-10-18T05:57:28.152Z,76.76
2018-10-18T05:59:57.106Z,76.70
2018-10-18T06:02:26.067Z,77.80
2018-10-18T06:04:55.020Z,77.79
2018-10-18T06:07:23.973Z,77.96
2018-10-18T06:09:53.000Z,78.13
2018-10-18T06:12:21.898Z,78.11
2018-10-18T06:14:50.852Z,78.64
2018-10-18T06:17:19.834Z,78.95
2018-10-18T06:19:48.736Z,79.32
2018-10-18T06:22:17.707Z,79.62
2018-10-18T06:24:46.618Z,79.66
2018-10-18T06:27:15.586Z,79.82
2018-10-18T06:29:44.522Z,79.74
2018-10-18T06:32:13.477Z,79.85
2018-10-18T06:34:42.383Z,80.00
2018-10-18T06:37:11.449Z,79.84
2018-10-18T06:39:40.288Z,79.89
2018-10-18T06:42:09.292Z,78.49
2018-10-18T06:44:38.288Z,79.74
2018-10-18T06:47:07.493Z,79.82
2018-10-18T06:49:36.599Z,79.84
2018-10-18T06:52:05.769Z,79.88
2018-10-18T06:54:34.670Z,79.84
2018-10-18T06:57:03.622Z,79.59
2018-10-18T06:59:32.616Z,79.65
2018-10-18T07:02:01.536Z,79.64
2018-10-18T07:04:30.477Z,79.53
2018-10-18T07:06:59.441Z,79.31
2018-10-18T07:09:28.411Z,78.96
2018-10-18T07:11:57.415Z,77.47
2018-10-18T07:14:26.321Z,78.83
2018-10-18T07:16:55.289Z,78.75
2018-10-18T07:19:24.223Z,78.57
2018-10-18T07:21:53.185Z,78.50
2018-10-18T07:24:22.128Z,78.24
2018-10-18T07:26:51.119Z,78.12
2018-10-18T07:29:20.065Z,77.90
2018-10-18T07:31:49.000Z,77.91
2018-10-18T07:34:17.971Z,78.16
2018-10-18T07:36:46.905Z,78.27
2018-10-18T07:39:15.857Z,77.87
2018-10-18T07:41:45.028Z,77.76
2018-10-18T07:44:13.988Z,77.43
2018-10-18T07:46:42.947Z,77.23
2018-10-18T07:49:11.875Z,76.98
2018-10-18T07:51:40.795Z,77.11
2018-10-18T07:54:09.831Z,77.04
2018-10-18T07:56:38.723Z,76.64
2018-10-18T07:59:08.081Z,76.16
2018-10-18T08:01:36.913Z,76.14
2018-10-18T08:04:06.498Z,76.33
2018-10-18T08:06:35.444Z,76.14
2018-10-18T08:09:06.485Z,76.07
2018-10-18T08:11:35.447Z,75.84
2018-10-18T08:14:04.461Z,75.63
2018-10-18T08:16:33.390Z,74.96
2018-10-18T08:19:02.640Z,74.87
2018-10-18T08:21:31.693Z,72.20
2018-10-18T08:24:00.612Z,72.86
2018-10-18T08:26:29.559Z,72.14
2018-10-18T08:28:58.600Z,71.15
2018-10-18T08:31:27.751Z,69.01
2018-10-18T08:33:56.477Z,69.07
2018-10-18T08:36:25.472Z,68.67
2018-10-18T08:38:54.384Z,68.75
2018-10-18T08:41:23.338Z,68.18
2018-10-18T08:43:52.271Z,68.04
2018-10-18T08:46:21.239Z,67.92
2018-10-18T08:48:50.154Z,67.28
2018-10-18T08:51:19.302Z,67.04
2018-10-18T08:53:48.239Z,66.52
2018-10-18T08:56:17.168Z,64.89
2018-10-18T08:58:46.178Z,65.53
2018-10-18T09:01:15.235Z,65.62
2018-10-18T09:03:44.109Z,65.23
2018-10-18T09:06:13.060Z,65.21
2018-10-18T09:08:42.007Z,65.32
2018-10-18T09:11:10.932Z,65.48
2018-10-18T09:13:39.871Z,65.75
2018-10-18T09:16:08.991Z,64.95
2018-10-18T09:18:37.856Z,64.83
2018-10-18T09:21:06.893Z,64.69
2018-10-18T09:23:35.899Z,64.49
2018-10-18T09:26:04.847Z,64.56
2018-10-18T09:28:33.777Z,64.33
2018-10-18T09:31:02.769Z,63.90
2018-10-18T09:33:31.625Z,64.00
2018-10-18T09:36:00.583Z,64.45
2018-10-18T09:38:29.616Z,64.19
2018-10-18T09:40:58.481Z,63.65
2018-10-18T09:43:27.398Z,63.69
2018-10-18T09:45:56.341Z,63.74
2018-10-18T09:48:25.256Z,63.45
2018-10-18T09:50:54.213Z,62.97
2018-10-18T09:53:23.378Z,63.54
2018-10-18T09:55:52.362Z,63.32
2018-10-18T09:58:21.284Z,63.19
2018-10-18T10:01:07.927Z,63.09
2018-10-18T10:03:36.806Z,62.87
2018-10-18T10:06:06.500Z,62.23
2018-10-18T10:08:35.456Z,62.21
2018-10-18T10:11:04.431Z,62.15
2018-10-18T10:13:33.455Z,61.66
2018-10-18T10:16:02.338Z,60.73
2018-10-18T10:18:31.269Z,58.75
2018-10-18T10:21:00.217Z,59.31
2018-10-18T10:23:29.176Z,56.94
2018-10-18T10:25:58.082Z,56.91
2018-10-18T10:28:27.045Z,54.57
2018-10-18T10:30:56.014Z,54.10
2018-10-18T10:33:24.954Z,52.86
2018-10-18T10:35:53.808Z,52.75
2018-10-18T10:38:22.770Z,52.25
2018-10-18T10:40:51.706Z,50.77
2018-10-18T10:43:20.662Z,50.99
2018-10-18T10:45:49.634Z,51.51
2018-10-18T10:48:18.660Z,51.83
2018-10-18T10:50:47.435Z,50.16
2018-10-18T10:53:16.382Z,51.66
2018-10-18T10:55:45.362Z,51.76
2018-10-18T10:58:14.351Z,51.82
2018-10-18T11:01:04.633Z,52.69
2018-10-18T11:03:33.615Z,53.28
2018-10-18T11:06:02.721Z,52.45
2018-10-18T11:08:31.501Z,52.88
2018-10-18T11:11:00.570Z,52.70
2018-10-18T11:13:30.102Z,52.53
2018-10-18T11:16:00.348Z,52.38
2018-10-18T11:18:29.521Z,52.19
2018-10-18T11:20:58.499Z,51.41
2018-10-18T11:23:27.398Z,51.00
2018-10-18T11:25:56.369Z,50.61
2018-10-18T11:28:25.272Z,49.62
2018-10-18T11:30:54.226Z,49.32
2018-10-18T11:33:23.170Z,49.21
2018-10-18T11:35:52.134Z,48.94
2018-10-18T11:38:21.030Z,48.66
2018-10-18T11:40:49.981Z,48.91
2018-10-18T11:43:18.912Z,49.12
2018-10-18T11:45:47.861Z,49.00
2018-10-18T11:48:17.059Z,49.20
2018-10-18T11:50:46.020Z,48.45
2018-10-18T11:53:14.955Z,49.21
2018-10-18T11:55:43.934Z,50.00
2018-10-18T11:58:13.400Z,50.30
2018-10-18T12:00:42.335Z,49.76
2018-10-18T12:03:11.417Z,49.68
2018-10-18T12:05:40.326Z,49.39
2018-10-18T12:08:09.342Z,49.79
2018-10-18T12:10:38.226Z,50.55
2018-10-18T12:13:07.441Z,50.90
2018-10-18T12:15:36.308Z,51.46
2018-10-18T12:18:05.541Z,50.53
2018-10-18T12:20:34.500Z,48.94
2018-10-18T12:23:03.450Z,47.92
2018-10-18T12:25:32.314Z,48.34
2018-10-18T12:28:01.308Z,48.82
2018-10-18T12:30:30.247Z,49.23
2018-10-18T12:32:59.215Z,50.01
2018-10-18T12:35:28.143Z,50.11
2018-10-18T12:37:57.139Z,48.51
2018-10-18T12:40:26.101Z,48.89
2018-10-18T12:42:54.935Z,48.60
2018-10-18T12:45:23.873Z,48.67
2018-10-18T12:47:52.839Z,48.18
2018-10-18T12:50:21.730Z,48.30
2018-10-18T12:52:50.665Z,48.24
2018-10-18T12:55:19.616Z,48.78
2018-10-18T12:57:48.548Z,48.80
2018-10-18T13:00:17.653Z,49.23
2018-10-18T13:02:46.442Z,49.05
2018-10-18T13:05:15.382Z,49.62
2018-10-18T13:07:44.344Z,49.68
2018-10-18T13:10:13.388Z,49.25
2018-10-18T13:12:42.425Z,48.41
2018-10-18T13:15:12.003Z,48.15
2018-10-18T13:17:40.959Z,46.26
2018-10-18T13:20:10.831Z,44.09
2018-10-18T13:22:39.990Z,45.51
2018-10-18T13:25:10.457Z,44.85
2018-10-18T13:27:39.511Z,45.38
2018-10-18T13:30:09.785Z,45.41
2018-10-18T13:32:39.369Z,46.01
2018-10-18T13:35:08.947Z,47.04
2018-10-18T13:37:38.007Z,47.46
2018-10-18T13:40:07.904Z,47.54
2018-10-18T13:42:37.959Z,47.78
2018-10-18T13:45:07.906Z,47.40
2018-10-18T13:47:39.936Z,47.62
2018-10-18T13:50:09.654Z,48.37
2018-10-18T13:52:39.165Z,47.76
2018-10-18T13:55:08.191Z,48.69
2018-10-18T13:57:37.124Z,48.70
2018-10-18T14:00:29.594Z,48.70
2018-10-18T14:02:58.584Z,48.47
2018-10-18T14:05:28.020Z,48.02
2018-10-18T14:07:57.483Z,47.25
2018-10-18T14:10:26.357Z,47.14
2018-10-18T14:12:55.365Z,47.52
2018-10-18T14:15:27.778Z,47.79
2018-10-18T14:17:57.456Z,48.40
2018-10-18T14:20:27.335Z,48.98
2018-10-18T14:22:57.161Z,49.98
2018-10-18T14:25:26.980Z,50.02
2018-10-18T14:27:56.505Z,50.23
2018-10-18T14:30:26.146Z,50.83
2018-10-18T14:32:55.652Z,51.03
2018-10-18T14:35:25.321Z,50.28
2018-10-18T14:37:55.185Z,50.10
2018-10-18T14:40:24.247Z,49.39
2018-10-18T14:42:54.283Z,49.25
2018-10-18T14:45:23.761Z,49.23
2018-10-18T14:47:56.860Z,49.20
2018-10-18T14:50:26.469Z,48.28
2018-10-18T14:52:56.199Z,48.66
2018-10-18T14:55:25.646Z,49.15
2018-10-18T14:57:55.248Z,49.18
2018-10-18T15:00:24.615Z,49.26
2018-10-18T15:02:56.780Z,49.27
2018-10-18T15:05:27.103Z,48.98
2018-10-18T15:07:58.895Z,49.41
2018-10-18T15:10:30.916Z,49.38
2018-10-18T15:13:03.051Z,48.71
2018-10-18T15:15:33.024Z,49.05
2018-10-18T15:18:02.334Z,48.89
2018-10-18T15:20:31.902Z,49.31
2018-10-18T15:23:01.398Z,50.11
2018-10-18T15:25:31.112Z,49.79
2018-10-18T15:28:02.418Z,50.06
2018-10-18T15:30:31.333Z,50.75
2018-10-18T15:33:00.351Z,50.79
2018-10-18T15:35:29.217Z,50.65
2018-10-18T15:37:58.230Z,50.50
2018-10-18T15:40:27.097Z,50.31
2018-10-18T15:42:56.076Z,50.77
2018-10-18T15:45:24.981Z,50.96
2018-10-18T15:47:53.965Z,51.24
2018-10-18T15:50:22.895Z,51.63
2018-10-18T15:52:51.818Z,51.35
2018-10-18T15:55:20.763Z,51.58
2018-10-18T15:57:49.732Z,50.91
2018-10-18T16:00:18.761Z,50.79
2018-10-18T16:02:47.580Z,51.31
2018-10-18T16:05:16.658Z,51.79
2018-10-18T16:07:45.461Z,51.22
2018-10-18T16:10:14.412Z,52.04
2018-10-18T16:12:43.345Z,52.63
2018-10-18T16:15:12.297Z,52.76
2018-10-18T16:17:41.415Z,52.70
2018-10-18T16:20:10.765Z,53.25
2018-10-18T16:22:40.161Z,53.72
2018-10-18T16:25:10.787Z,53.93
2018-10-18T16:27:39.963Z,54.28
2018-10-18T16:30:09.056Z,55.02
2018-10-18T16:32:38.363Z,55.42
2018-10-18T16:35:08.219Z,54.97
2018-10-18T16:37:37.058Z,55.72
2018-10-18T16:40:06.626Z,56.06
2018-10-18T16:42:35.555Z,56.22
2018-10-18T16:45:05.017Z,56.82
2018-10-18T16:47:34.068Z,57.50
2018-10-18T16:50:02.966Z,58.00
2018-10-18T16:52:31.910Z,58.33
2018-10-18T16:55:00.901Z,58.58
2018-10-18T16:57:29.908Z,58.62
2018-10-18T16:59:58.844Z,59.22
2018-10-18T17:02:27.723Z,59.02
2018-10-18T17:04:56.723Z,59.41
2018-10-18T17:07:25.694Z,58.91
2018-10-18T17:09:54.687Z,59.65
2018-10-18T17:12:23.600Z,60.11
2018-10-18T17:14:52.601Z,59.69
2018-10-18T17:17:21.581Z,59.97
2018-10-18T17:19:50.605Z,60.07
2018-10-18T17:22:19.583Z,59.24
2018-10-18T17:24:48.643Z,60.14
2018-10-18T17:27:17.756Z,59.67
2018-10-18T17:29:46.520Z,59.73
2018-10-18T17:32:15.623Z,59.63
2018-10-18T17:34:44.424Z,59.47
2018-10-18T17:37:13.419Z,59.06
2018-10-18T17:39:42.365Z,58.49
2018-10-18T17:42:11.380Z,58.97
2018-10-18T17:44:40.271Z,58.67
2018-10-18T17:47:09.385Z,58.42
2018-10-18T17:49:38.281Z,58.47
2018-10-18T17:52:07.333Z,58.36
2018-10-18T17:54:36.230Z,58.46
2018-10-18T17:57:05.272Z,58.60
2018-10-18T17:59:34.276Z,58.62
2018-10-18T18:02:03.213Z,58.46
2018-10-18T18:04:32.129Z,58.46
2018-10-18T18:07:01.220Z,58.61
2018-10-18T18:09:30.123Z,58.74
2018-10-18T18:11:59.057Z,58.46
2018-10-18T18:14:28.001Z,58.21
2018-10-18T18:16:57.006Z,58.48
2018-10-18T18:19:25.995Z,58.58
2018-10-18T18:21:55.007Z,58.18
2018-10-18T18:24:23.955Z,58.33
2018-10-18T18:26:52.946Z,58.58
2018-10-18T18:29:21.880Z,58.58
2018-10-18T18:31:50.848Z,58.43
2018-10-18T18:34:19.798Z,58.56
2018-10-18T18:36:48.767Z,58.72
2018-10-18T18:39:17.739Z,58.93
2018-10-18T18:41:46.670Z,59.05
2018-10-18T18:44:15.684Z,58.53
2018-10-18T18:46:44.754Z,59.29
2018-10-18T18:49:13.670Z,59.24
2018-10-18T18:51:42.690Z,59.50
2018-10-18T18:54:11.606Z,59.79
2018-10-18T18:56:40.585Z,59.91
2018-10-18T18:59:09.532Z,59.87
2018-10-18T19:01:38.487Z,59.54
2018-10-18T19:04:07.598Z,60.12
2018-10-18T19:06:36.539Z,60.09
2018-10-18T19:09:07.278Z,60.41
2018-10-18T19:11:36.094Z,60.80
2018-10-18T19:14:05.495Z,60.84
2018-10-18T19:16:34.390Z,60.78
2018-10-18T19:19:03.655Z,60.85
2018-10-18T19:21:32.773Z,60.97
2018-10-18T19:24:01.767Z,61.29
2018-10-18T19:26:30.686Z,61.25
2018-10-18T19:28:59.652Z,61.56
2018-10-18T19:31:28.585Z,62.10
2018-10-18T19:33:57.587Z,61.96
2018-10-18T19:36:26.503Z,62.17
2018-10-18T19:38:55.442Z,61.72
2018-10-18T19:41:24.376Z,62.08
2018-10-18T19:43:53.374Z,62.36
2018-10-18T19:46:22.476Z,62.37
2018-10-18T19:48:51.243Z,62.46
2018-10-18T19:51:20.221Z,62.20
2018-10-18T19:53:49.176Z,62.79
2018-10-18T19:56:18.145Z,62.62
2018-10-18T19:58:47.125Z,62.89
2018-10-18T20:01:16.090Z,62.88
2018-10-18T20:03:45.053Z,63.14
2018-10-18T20:06:14.026Z,63.62
2018-10-18T20:08:43.028Z,63.96
2018-10-18T20:11:11.941Z,64.21
2018-10-18T20:13:40.880Z,64.61
2018-10-18T20:16:09.799Z,63.88
2018-10-18T20:18:38.849Z,64.59
2018-10-18T20:21:07.874Z,65.51
2018-10-18T20:23:36.777Z,66.24
2018-10-18T20:26:06.103Z,65.01
2018-10-18T20:28:34.686Z,65.81
2018-10-18T20:31:03.618Z,65.83
2018-10-18T20:33:32.555Z,66.01
2018-10-18T20:36:01.533Z,66.27
2018-10-18T20:38:30.428Z,64.86
2018-10-18T20:40:59.412Z,65.87
2018-10-18T20:43:28.308Z,64.80
2018-10-18T20:45:57.305Z,65.87
2018-10-18T20:48:26.232Z,66.25
2018-10-18T20:50:55.215Z,66.30
2018-10-18T20:53:24.196Z,66.48
2018-10-18T20:55:53.189Z,66.70
2018-10-18T20:58:22.242Z,66.97
2018-10-18T21:00:51.145Z,67.36
2018-10-18T21:03:20.066Z,67.28
2018-10-18T21:05:49.058Z,67.20
2018-10-18T21:08:17.991Z,67.66
2018-10-18T21:10:47.061Z,68.08
2018-10-18T21:13:16.014Z,67.90
2018-10-18T21:15:44.969Z,67.89
2018-10-18T21:18:14.024Z,68.06
2018-10-18T21:20:42.932Z,68.28
2018-10-18T21:23:12.119Z,68.01
2018-10-18T21:25:40.840Z,68.32
2018-10-18T21:28:09.830Z,68.30
2018-10-18T21:31:09.392Z,68.46
2018-10-18T21:33:38.396Z,68.50
2018-10-18T21:36:07.394Z,68.16
2018-10-18T21:38:36.396Z,68.63
2018-10-18T21:41:05.582Z,68.57
2018-10-18T21:43:34.513Z,68.85
2018-10-18T21:46:03.432Z,68.88
2018-10-18T21:48:32.801Z,68.92
2018-10-18T21:51:01.824Z,69.14
2018-10-18T21:53:30.748Z,69.14
2018-10-18T21:55:59.671Z,69.29
2018-10-18T21:58:28.642Z,69.60
2018-10-18T22:00:57.597Z,69.52
2018-10-18T22:03:26.528Z,68.84
2018-10-18T22:05:55.521Z,69.70
2018-10-18T22:08:24.510Z,68.55
2018-10-18T22:10:53.462Z,69.51
2018-10-18T22:13:22.443Z,69.82
2018-10-18T22:15:51.410Z,69.91
2018-10-18T22:18:20.379Z,70.18
2018-10-18T22:20:49.374Z,70.11
2018-10-18T22:23:18.327Z,69.32
2018-10-18T22:25:47.279Z,68.72
2018-10-18T22:28:16.277Z,69.71
2018-10-18T22:30:45.264Z,69.79
2018-10-18T22:33:14.354Z,69.60
2018-10-18T22:35:43.258Z,69.74
2018-10-18T22:38:12.222Z,70.02
2018-10-18T22:40:41.212Z,70.47
2018-10-18T22:43:10.240Z,69.58
2018-10-18T22:45:39.206Z,69.18
2018-10-18T22:48:08.219Z,70.18
2018-10-18T22:50:37.140Z,70.23
2018-10-18T22:53:06.158Z,70.46
2018-10-18T22:55:35.085Z,70.51
2018-10-18T22:58:04.089Z,70.75
2018-10-18T23:00:33.061Z,69.78
2018-10-18T23:03:02.149Z,70.59
2018-10-18T23:05:31.019Z,70.83
2018-10-18T23:08:00.000Z,70.85
2018-10-18T23:10:28.941Z,71.12
2018-10-18T23:12:57.934Z,71.11
2018-10-18T23:15:26.925Z,71.24
2018-10-18T23:17:55.904Z,70.86
2018-10-18T23:20:24.834Z,70.74
2018-10-18T23:22:53.801Z,70.76
2018-10-18T23:25:22.729Z,70.75
2018-10-18T23:27:51.670Z,70.85
2018-10-18T23:30:20.637Z,70.86
2018-10-18T23:32:49.598Z,70.87
2018-10-18T23:35:18.558Z,70.92
2018-10-18T23:37:47.473Z,71.00
2018-10-18T23:40:16.446Z,70.94
2018-10-18T23:42:45.398Z,71.10
2018-10-18T23:45:14.396Z,71.48
2018-10-18T23:47:43.332Z,71.46
2018-10-18T23:50:12.309Z,71.46
2018-10-18T23:52:41.222Z,71.57
2018-10-18T23:55:10.227Z,71.52
2018-10-18T23:57:39.133Z,71.56
